Lilly, PA (15938)

04:56 PM EDT del 29 Agosto 2015 (GMT -0400)
Portage Boro | | Change Station
CLOSE
Current Station
Stazione meteo personale
Location: Portage, PA
Altitudine: 1690 ft
Stazioni meteo nelle vicinanze

Alt. 1690 ft 40.39 °N, 78.67 °W | Updated 46 seconds ago

Parzialmente nuvoloso
Parzialmente nuvoloso
80.2 °F
Sembra 80 °F
N
8.1
Vento Variabile Vento da NE
Gusts 9.8 mph

Oggi
Massima -- | Minima -- °F
--% Possibilità di precip.
Ieri
Massima -- | Minima -- °F
Precip. -- in
6:38 AM 7:51 PM
Luna piena, 100% visible
Pressione 30.14 in
Visibilità 10.0 miglia
Nuvole Sereno
Indice di calore 80 °F
Punto di rugiada 55 °F
Umidità 42%
Piovosità 0.00 in
Spessore del manto nevoso Non disponibile.
Raggi UV 4 fuori da 12
Polline 9.80 fuori da 12
Qualità dell'aria Non disponibile.
Flu Activity Non disponibile.
METAR KJST 292054Z AUTO 32006KT 10SM CLR 26/12 A3018 RMK AO2 SLP205 T02610117 58013
Pressione 30.14 in
Visibilità 10.0 miglia
Nuvole Sereno
Indice di calore 80 °F
Punto di rugiada 55 °F
Umidità 42%
Piovosità 0.00 in
Spessore del manto nevoso Non disponibile.
Raggi UV 4 fuori da 12
Polline 9.80 fuori da 12
Qualità dell'aria Non disponibile.
Flu Activity Non disponibile.
METAR KJST 292054Z AUTO 32006KT 10SM CLR 26/12 A3018 RMK AO2 SLP205 T02610117 58013

10-Day Weather Forecast

×

Almanac

Astronomia

Aug. 29, 2015 Alba Tramonto
Ora attuale
Crepuscolo civile
Crepuscolo nautico
Crepuscolo astronomico
Luna
Estensione della luce visibile
Lunghezza del giorno
Tomorrow will be .
, % of the Moon is Illuminated

Gli estremi di oggi

State Highs State Lows

Community

WunderPhotos

Upload Photos

1,850,793 foto caricate!

WunderBlogs® & News

Nearby

Qualità dell'aria

  Qualità dell'aria Indice AQ Inquinante
Not available.

Profondità neve

Stazione Profondità Altitudine

Attività sismica

Città  Distanza Mag. Data & Ora
Minimo Magnitudo Mostrato è 2.5.

Temperature delle acque costiere

Località Temperatura

Stations

Stazioni meteo nelle vicinanze

Ubicazione della stazione Temp. Raffreddamento del vento Punto di rugiada Umidità Vento Precip. Alt. Aggiornato Tipo